Aviation Digital Data Service (ADDS)

Output produced by METARs form (1107 UTC 30 July 2014)
found at http://aviationweather.gov/adds/metars/
 
KACK 300540Z 3006/3106 24005KT P6SM SCT250 
     FM301000 VRB03KT P6SM SCT250 
     FM310300 26004KT 5SM BR FEW250